Time;durP1;ratioP1;P1;durP2;ratioP2;P2;SDS_P1;SDS_P2;PMS_P1;PMS_P2;Temp;Humidity;BMP_temperature;BMP_pressure;BME280_temperature;BME280_humidity;BME280_pressure;Samples;Min_cycle;Max_cycle;Signal;HPM_P1;HPM_P2
2022/04/03 00:00:27;;;;;;;23.73;13.95;;;4.10;99.90;;;;;;5056646;28;20507;-89
2022/04/03 00:02:53;;;;;;;23.43;13.67;;;4.10;99.90;;;;;;5056816;28;20201;-89
2022/04/03 00:05:19;;;;;;;23.10;12.17;;;4.10;99.90;;;;;;5056258;28;20417;-89
2022/04/03 00:07:46;;;;;;;21.50;14.55;;;4.00;99.90;;;;;;5074128;28;20429;-89
2022/04/03 00:10:12;;;;;;;24.92;14.80;;;4.10;99.90;;;;;;5074258;28;20180;-88
2022/04/03 00:12:38;;;;;;;29.53;14.53;;;4.10;99.90;;;;;;5056144;28;20593;-89
2022/04/03 00:15:04;;;;;;;21.20;12.47;;;4.10;99.90;;;;;;5056238;28;20392;-89
2022/04/03 00:17:30;;;;;;;25.88;14.30;;;4.00;99.90;;;;;;5056396;28;20404;-89
2022/04/03 00:19:55;;;;;;;22.73;12.90;;;4.00;99.90;;;;;;5056625;28;20225;-89
2022/04/03 00:22:23;;;;;;;24.70;14.27;;;4.00;99.90;;;;;;5056744;28;20205;-89
2022/04/03 00:24:48;;;;;;;22.58;13.90;;;4.00;99.90;;;;;;5056105;28;20184;-88
2022/04/03 00:27:14;;;;;;;25.70;13.73;;;4.00;99.90;;;;;;5057442;28;20205;-89
2022/04/03 00:29:40;;;;;;;25.33;14.60;;;4.00;99.90;;;;;;5056926;28;20246;-89
2022/04/03 00:32:06;;;;;;;28.23;14.40;;;4.00;99.90;;;;;;5075229;28;20225;-89
2022/04/03 00:34:32;;;;;;;23.92;13.55;;;4.00;99.90;;;;;;5075169;28;20169;-88
2022/04/03 00:36:57;;;;;;;21.93;11.77;;;4.00;99.90;;;;;;5058018;28;20728;-88
2022/04/03 00:39:23;;;;;;;24.93;14.93;;;4.00;99.90;;;;;;5075272;28;20201;-88
2022/04/03 00:41:49;;;;;;;18.80;12.13;;;4.00;99.90;;;;;;5060456;28;20192;-88
2022/04/03 00:44:17;;;;;;;24.43;15.33;;;4.10;99.90;;;;;;5083770;28;20181;-87
2022/04/03 00:46:44;;;;;;;25.13;13.00;;;4.10;99.90;;;;;;5079912;28;20388;-89
2022/04/03 00:49:10;;;;;;;19.55;12.23;;;4.10;99.90;;;;;;5060231;28;20173;-89
2022/04/03 00:51:37;;;;;;;24.00;13.87;;;4.10;99.90;;;;;;5060090;28;20654;-88
2022/04/03 00:54:03;;;;;;;18.65;12.15;;;4.10;99.90;;;;;;5060485;28;20387;-89
2022/04/03 00:56:31;;;;;;;22.40;13.50;;;4.10;99.90;;;;;;5060264;28;20236;-89
2022/04/03 00:58:58;;;;;;;22.52;14.10;;;4.10;99.90;;;;;;5059512;28;20587;-89
2022/04/03 01:01:24;;;;;;;24.73;12.77;;;4.10;99.90;;;;;;5060012;28;20193;-89
2022/04/03 01:03:49;;;;;;;20.55;12.93;;;4.10;99.90;;;;;;5059331;28;20670;-89
2022/04/03 01:06:16;;;;;;;23.53;12.47;;;4.10;99.90;;;;;;5059948;28;20197;-89
2022/04/03 01:08:42;;;;;;;21.60;12.85;;;4.20;99.90;;;;;;5059975;28;20193;-89
2022/04/03 01:11:11;;;;;;;20.90;13.55;;;4.20;99.90;;;;;;5059598;28;20543;-89
2022/04/03 01:13:47;;;;;;;23.98;13.38;;;4.20;99.90;;;;;;5059559;28;20221;-88
2022/04/03 01:16:13;;;;;;;21.90;13.23;;;4.20;99.90;;;;;;5068583;28;20630;-88
2022/04/03 01:18:39;;;;;;;20.30;14.00;;;4.30;99.90;;;;;;5057166;28;20229;-89
2022/04/03 01:21:05;;;;;;;28.53;13.43;;;4.30;99.90;;;;;;5039765;28;20425;-88
2022/04/03 01:23:31;;;;;;;24.07;13.27;;;4.30;99.90;;;;;;5056996;28;20194;-89
2022/04/03 01:25:57;;;;;;;21.27;12.53;;;4.30;99.90;;;;;;5039742;28;20767;-88
2022/04/03 01:28:26;;;;;;;21.37;12.03;;;4.30;99.90;;;;;;5056967;28;20397;-89
2022/04/03 01:30:51;;;;;;;23.58;15.15;;;4.30;99.90;;;;;;5039404;28;20433;-88
2022/04/03 01:33:17;;;;;;;23.43;11.27;;;4.30;99.90;;;;;;5056977;28;20214;-89
2022/04/03 01:35:44;;;;;;;17.93;11.77;;;4.40;99.90;;;;;;5057541;28;20224;-88
2022/04/03 01:38:10;;;;;;;19.77;11.15;;;4.40;99.90;;;;;;5057592;28;20404;-89
2022/04/03 01:40:36;;;;;;;22.52;13.32;;;4.40;99.90;;;;;;5058013;28;20200;-88
2022/04/03 01:43:06;;;;;;;17.73;11.67;;;4.40;99.90;;;;;;5059310;28;20249;-89
2022/04/03 01:45:36;;;;;;;23.17;12.60;;;4.40;99.90;;;;;;5059544;28;20511;-89
2022/04/03 01:48:03;;;;;;;20.17;12.98;;;4.40;99.90;;;;;;5058208;28;20553;-89
2022/04/03 01:50:29;;;;;;;21.60;12.40;;;4.40;99.90;;;;;;5039821;28;20564;-89
2022/04/03 01:52:54;;;;;;;18.90;11.27;;;4.40;99.90;;;;;;5057084;28;20271;-88
2022/04/03 01:55:20;;;;;;;18.43;12.80;;;4.40;99.90;;;;;;5040264;28;20178;-89
2022/04/03 01:57:46;;;;;;;22.67;12.23;;;4.40;99.90;;;;;;5039819;28;20193;-88
2022/04/03 02:00:12;;;;;;;22.73;12.20;;;4.40;99.90;;;;;;5040885;28;20469;-89
2022/04/03 02:02:39;;;;;;;28.13;14.68;;;4.40;99.90;;;;;;5053777;28;20248;-89
2022/04/03 02:05:06;;;;;;;17.40;11.80;;;4.40;99.90;;;;;;5063624;28;20170;-88
2022/04/03 02:07:33;;;;;;;23.20;12.40;;;4.40;99.90;;;;;;5043898;28;20263;-89
2022/04/03 02:09:59;;;;;;;23.83;12.90;;;4.40;99.90;;;;;;5042102;28;20197;-89
2022/04/03 02:12:25;;;;;;;20.55;11.82;;;4.40;99.90;;;;;;5063094;28;20206;-88
2022/04/03 02:14:51;;;;;;;17.30;11.30;;;4.40;99.90;;;;;;5058154;28;20199;-89
2022/04/03 02:17:17;;;;;;;21.37;12.57;;;4.40;99.90;;;;;;5055645;28;20583;-89
2022/04/03 02:19:43;;;;;;;18.02;11.55;;;4.40;99.90;;;;;;5057963;28;20236;-89
2022/04/03 02:22:09;;;;;;;21.15;12.52;;;4.40;99.90;;;;;;5058487;28;20209;-89
2022/04/03 02:24:34;;;;;;;20.67;12.57;;;4.40;99.90;;;;;;5075701;28;20176;-87
2022/04/03 02:27:00;;;;;;;19.90;12.40;;;4.30;99.90;;;;;;5057908;28;20212;-89
2022/04/03 02:29:26;;;;;;;17.47;11.87;;;4.40;99.90;;;;;;5075454;28;20173;-88
2022/04/03 02:31:52;;;;;;;18.83;11.20;;;4.40;99.90;;;;;;5057906;28;20224;-89
2022/04/03 02:34:18;;;;;;;19.33;13.17;;;4.40;99.90;;;;;;5057710;28;20256;-88
2022/04/03 02:36:44;;;;;;;18.30;11.35;;;4.40;99.90;;;;;;5057826;28;20243;-89
2022/04/03 02:39:14;;;;;;;22.25;11.75;;;4.40;99.90;;;;;;5057820;28;20173;-87
2022/04/03 02:41:40;;;;;;;20.13;10.80;;;4.40;99.90;;;;;;5075712;28;20264;-88
2022/04/03 02:44:05;;;;;;;22.57;12.07;;;4.40;99.90;;;;;;5058155;28;20264;-89
2022/04/03 02:46:31;;;;;;;22.80;12.57;;;4.40;99.90;;;;;;5077343;28;20230;-89
2022/04/03 02:48:57;;;;;;;17.40;11.23;;;4.40;99.90;;;;;;5059039;28;20184;-88
2022/04/03 02:51:23;;;;;;;21.77;11.33;;;4.40;99.90;;;;;;5059239;28;20260;-89
2022/04/03 02:53:48;;;;;;;21.80;12.30;;;4.40;99.90;;;;;;5058256;28;20256;-88
2022/04/03 02:56:14;;;;;;;16.80;10.70;;;4.40;99.90;;;;;;5058151;28;20432;-89
2022/04/03 02:58:42;;;;;;;17.07;12.03;;;4.40;99.90;;;;;;5058095;28;20197;-89
2022/04/03 03:01:08;;;;;;;17.67;11.48;;;4.50;99.90;;;;;;5058767;28;20313;-89
2022/04/03 03:03:34;;;;;;;18.07;10.13;;;4.50;99.90;;;;;;5057662;28;20674;-88
2022/04/03 03:05:59;;;;;;;20.27;12.10;;;4.50;99.90;;;;;;5058517;28;20248;-88
2022/04/03 03:08:25;;;;;;;19.10;11.53;;;4.50;99.90;;;;;;5076932;28;20193;-89
2022/04/03 03:10:51;;;;;;;21.60;12.70;;;4.50;99.90;;;;;;5058173;28;20185;-89
2022/04/03 03:13:16;;;;;;;16.60;11.27;;;4.50;99.90;;;;;;5057353;28;20224;-89
2022/04/03 03:15:42;;;;;;;19.17;11.50;;;4.50;99.90;;;;;;5062576;28;20538;-88
2022/04/03 03:18:08;;;;;;;15.50;10.00;;;4.50;99.90;;;;;;5058581;28;20243;-89
2022/04/03 03:20:34;;;;;;;21.10;12.50;;;4.50;99.90;;;;;;5046477;28;20186;-89
2022/04/03 03:23:00;;;;;;;20.23;13.43;;;4.50;99.90;;;;;;5058625;28;20636;-90
2022/04/03 03:25:29;;;;;;;19.03;12.73;;;4.50;99.90;;;;;;5037447;28;20891;-88
2022/04/03 03:27:55;;;;;;;18.52;11.75;;;4.50;99.90;;;;;;5037636;28;20569;-89
2022/04/03 03:30:21;;;;;;;19.30;10.75;;;4.60;99.90;;;;;;5038030;28;20177;-88
2022/04/03 03:32:47;;;;;;;19.33;10.88;;;4.60;99.90;;;;;;5048791;28;20217;-89
2022/04/03 03:35:13;;;;;;;19.30;11.53;;;4.60;99.90;;;;;;5050845;28;20272;-89
2022/04/03 03:37:40;;;;;;;16.50;10.40;;;4.70;99.90;;;;;;5056775;28;20449;-90
2022/04/03 03:40:11;;;;;;;20.35;10.70;;;4.70;99.90;;;;;;5055235;28;20389;-89
2022/04/03 03:42:38;;;;;;;16.98;11.75;;;4.70;99.90;;;;;;5056967;28;20200;-89
2022/04/03 03:45:05;;;;;;;19.33;10.13;;;4.70;99.90;;;;;;5049557;28;20690;-89
2022/04/03 03:47:31;;;;;;;22.10;12.05;;;4.70;99.90;;;;;;5045195;28;20213;-91
2022/04/03 03:49:57;;;;;;;19.38;11.85;;;4.70;99.90;;;;;;5057196;28;20592;-90
2022/04/03 03:52:22;;;;;;;21.73;12.80;;;4.70;99.90;;;;;;5070966;28;20308;-89
2022/04/03 03:54:48;;;;;;;18.50;11.23;;;4.80;99.90;;;;;;5059815;28;20650;-92
2022/04/03 03:57:14;;;;;;;18.30;11.57;;;4.80;99.90;;;;;;5043074;28;20205;-90
2022/04/03 03:59:40;;;;;;;18.40;10.67;;;4.80;99.90;;;;;;5037398;28;20215;-89
2022/04/03 04:02:05;;;;;;;18.30;10.80;;;4.80;99.90;;;;;;5038954;28;20453;-90
2022/04/03 04:04:31;;;;;;;19.40;11.30;;;4.80;99.90;;;;;;5044317;28;20193;-87
2022/04/03 04:06:57;;;;;;;20.17;11.73;;;4.80;99.90;;;;;;5036674;28;20197;-90
2022/04/03 04:09:23;;;;;;;18.27;10.83;;;4.80;99.90;;;;;;5036693;28;20224;-90
2022/04/03 04:11:49;;;;;;;17.53;10.77;;;4.80;99.90;;;;;;5054590;28;20422;-87
2022/04/03 04:14:14;;;;;;;18.90;10.60;;;4.80;99.90;;;;;;5036683;28;20476;-92
2022/04/03 04:16:42;;;;;;;17.20;10.03;;;4.90;99.90;;;;;;5045475;28;20748;-89
2022/04/03 04:19:08;;;;;;;14.30;10.43;;;4.80;99.90;;;;;;5059297;28;20226;-88
2022/04/03 04:21:34;;;;;;;19.00;11.00;;;4.80;99.90;;;;;;5041934;28;20184;-89
2022/04/03 04:24:00;;;;;;;19.00;11.02;;;4.90;99.90;;;;;;5059310;28;20180;-88
2022/04/03 04:26:26;;;;;;;17.23;11.20;;;4.80;99.90;;;;;;5069261;28;20189;-89
2022/04/03 04:28:51;;;;;;;17.50;11.37;;;4.90;99.90;;;;;;5087535;28;20425;-88
2022/04/03 04:31:18;;;;;;;18.43;11.97;;;4.90;99.90;;;;;;5091127;28;20165;-89
2022/04/03 04:33:45;;;;;;;18.20;11.10;;;4.90;99.90;;;;;;5079909;28;20527;-92
2022/04/03 04:36:10;;;;;;;17.52;11.23;;;4.90;99.90;;;;;;5081911;28;20177;-88
2022/04/03 04:38:37;;;;;;;18.20;12.03;;;4.90;99.90;;;;;;5075672;28;20734;-87
2022/04/03 04:41:03;;;;;;;19.85;11.02;;;4.90;99.90;;;;;;5059997;28;20181;-89
2022/04/03 04:43:29;;;;;;;19.95;11.40;;;4.90;99.90;;;;;;5060156;28;20638;-89
2022/04/03 04:45:55;;;;;;;18.50;10.70;;;4.90;99.90;;;;;;5058368;28;20196;-93
2022/04/03 04:48:20;;;;;;;17.80;11.20;;;4.90;99.90;;;;;;5075646;28;20263;-88
2022/04/03 04:50:47;;;;;;;17.07;11.27;;;4.90;99.90;;;;;;5044170;28;20429;-92
2022/04/03 04:53:12;;;;;;;21.63;12.02;;;5.00;99.90;;;;;;5069079;28;20336;-90
2022/04/03 04:55:38;;;;;;;17.07;11.03;;;5.00;99.90;;;;;;5057039;28;20212;-94
2022/04/03 04:58:04;;;;;;;17.87;9.70;;;5.00;99.90;;;;;;5043165;28;20409;-94
2022/04/03 05:00:32;;;;;;;15.73;9.85;;;5.10;99.90;;;;;;5077978;28;20425;-91
2022/04/03 05:02:58;;;;;;;19.70;10.80;;;5.10;99.90;;;;;;5074982;28;20291;-87
2022/04/03 05:05:27;;;;;;;17.90;10.75;;;5.10;99.90;;;;;;5079525;28;20197;-88
2022/04/03 05:07:57;;;;;;;18.65;11.55;;;5.10;99.90;;;;;;5046100;28;20204;-88
2022/04/03 05:10:25;;;;;;;18.38;10.88;;;5.10;99.90;;;;;;5049677;28;20181;-88
2022/04/03 05:12:51;;;;;;;20.52;11.00;;;5.00;99.90;;;;;;5043224;28;20233;-91
2022/04/03 05:15:18;;;;;;;21.40;11.57;;;5.00;99.90;;;;;;5044794;28;20174;-88
2022/04/03 05:17:45;;;;;;;18.75;11.98;;;5.00;99.90;;;;;;5059559;28;20204;-88
2022/04/03 05:20:14;;;;;;;16.45;10.88;;;5.00;99.90;;;;;;5059801;28;20288;-89
2022/04/03 05:22:41;;;;;;;18.13;11.20;;;5.00;99.90;;;;;;5057376;28;20555;-93
2022/04/03 05:25:11;;;;;;;19.70;11.45;;;5.00;99.90;;;;;;5045808;28;20197;-89
2022/04/03 05:27:40;;;;;;;17.70;11.55;;;5.00;99.90;;;;;;5019247;28;20218;-91
2022/04/03 05:30:07;;;;;;;22.40;11.93;;;5.00;99.90;;;;;;5040590;28;20177;-94
2022/04/03 05:32:33;;;;;;;22.45;12.25;;;5.00;99.90;;;;;;5047212;28;20611;-88
2022/04/03 05:34:59;;;;;;;24.80;13.27;;;4.90;99.90;;;;;;5029429;28;20174;-88
2022/04/03 05:37:25;;;;;;;18.13;13.05;;;4.90;99.90;;;;;;5030723;28;20572;-93
2022/04/03 05:39:52;;;;;;;19.52;12.23;;;4.90;99.90;;;;;;5048235;28;20178;-87
2022/04/03 05:42:19;;;;;;;19.92;11.52;;;4.90;99.90;;;;;;5049788;28;20336;-88
2022/04/03 05:44:45;;;;;;;18.95;11.60;;;4.90;99.90;;;;;;5033108;28;20265;-92
2022/04/03 05:47:10;;;;;;;21.23;11.87;;;4.80;99.90;;;;;;5020476;28;20284;-92
2022/04/03 05:49:37;;;;;;;22.83;13.23;;;4.80;99.90;;;;;;5047068;28;20266;-93
2022/04/03 05:52:03;;;;;;;25.63;15.38;;;4.70;99.90;;;;;;5044132;28;20222;-94
2022/04/03 05:54:29;;;;;;;49.42;27.23;;;4.70;99.90;;;;;;5025096;28;20178;-92
2022/04/03 05:56:55;;;;;;;51.50;30.20;;;4.70;99.90;;;;;;5031127;28;20198;-89
2022/04/03 05:59:21;;;;;;;36.43;21.17;;;4.60;99.90;;;;;;5046847;28;20426;-87
2022/04/03 06:01:48;;;;;;;28.77;14.83;;;4.60;99.90;;;;;;5023842;28;20216;-94
2022/04/03 06:04:14;;;;;;;35.05;20.25;;;4.50;99.90;;;;;;5034428;28;20433;-89
2022/04/03 06:06:40;;;;;;;33.35;17.52;;;4.50;99.90;;;;;;5050402;28;20205;-93
2022/04/03 06:09:06;;;;;;;28.45;17.50;;;4.50;99.90;;;;;;5054668;28;20174;-92
2022/04/03 06:11:32;;;;;;;29.43;15.80;;;4.50;99.90;;;;;;5053370;28;20197;-95
2022/04/03 06:13:57;;;;;;;27.17;15.60;;;4.50;99.90;;;;;;5042376;28;20265;-93
2022/04/03 06:16:23;;;;;;;20.00;12.93;;;4.50;99.90;;;;;;5032476;28;20964;-90
2022/04/03 06:18:49;;;;;;;23.37;13.93;;;4.50;99.90;;;;;;5036749;28;20237;-92
2022/04/03 06:21:15;;;;;;;26.60;14.90;;;4.50;99.90;;;;;;5055178;28;20429;-94
2022/04/03 06:23:40;;;;;;;17.20;10.87;;;4.50;99.90;;;;;;5073685;28;20264;-94
2022/04/03 06:26:06;;;;;;;20.67;10.90;;;4.50;99.90;;;;;;5079955;28;20666;-90
2022/04/03 06:28:32;;;;;;;19.83;12.63;;;4.60;99.90;;;;;;5040078;28;20225;-95
2022/04/03 06:30:58;;;;;;;20.97;10.60;;;4.70;99.90;;;;;;5038396;28;20404;-94
2022/04/03 06:33:24;;;;;;;23.98;12.90;;;4.70;99.90;;;;;;5042985;28;20212;-94
2022/04/03 06:35:50;;;;;;;22.43;11.23;;;4.70;99.90;;;;;;5034177;28;20182;-90
2022/04/03 06:38:16;;;;;;;18.63;11.33;;;4.80;99.90;;;;;;5033450;28;20201;-90
2022/04/03 06:40:50;;;;;;;20.63;12.02;;;4.90;99.90;;;;;;5034962;28;20496;-95
2022/04/03 06:43:22;;;;;;;16.38;10.15;;;4.90;99.90;;;;;;5054723;28;20204;-90
2022/04/03 06:45:48;;;;;;;15.70;9.20;;;5.00;99.90;;;;;;5053903;28;20355;-95
2022/04/03 06:48:14;;;;;;;16.15;11.70;;;5.00;99.90;;;;;;5056262;28;20204;-90
2022/04/03 06:50:40;;;;;;;18.45;10.70;;;5.00;99.90;;;;;;5037827;28;20232;-90
2022/04/03 06:53:06;;;;;;;20.90;10.30;;;5.00;99.90;;;;;;5042673;28;20209;-90
2022/04/03 06:55:31;;;;;;;16.70;10.07;;;5.00;99.90;;;;;;5038021;28;20505;-90
2022/04/03 06:57:57;;;;;;;15.93;10.67;;;5.10;99.90;;;;;;5052337;28;20444;-89
2022/04/03 07:00:23;;;;;;;15.20;10.67;;;5.10;99.90;;;;;;5056235;28;20403;-94
2022/04/03 07:02:49;;;;;;;19.40;9.80;;;5.10;99.90;;;;;;5038131;28;20201;-89
2022/04/03 07:05:15;;;;;;;14.07;8.35;;;5.10;99.90;;;;;;5069554;28;20196;-94
2022/04/03 07:07:41;;;;;;;13.93;9.50;;;5.20;99.90;;;;;;5072046;28;20270;-94
2022/04/03 07:10:09;;;;;;;17.30;9.70;;;5.20;99.90;;;;;;5053533;28;20195;-90
2022/04/03 07:12:35;;;;;;;9.85;6.45;;;5.20;99.90;;;;;;5056188;28;20209;-91
2022/04/03 07:15:01;;;;;;;15.55;8.80;;;5.20;99.90;;;;;;5058914;28;20223;-89
2022/04/03 07:17:27;;;;;;;14.68;8.40;;;5.20;99.90;;;;;;5038982;28;20201;-96
2022/04/03 07:19:53;;;;;;;16.23;8.50;;;5.10;99.90;;;;;;5056505;28;20566;-90
2022/04/03 07:22:19;;;;;;;10.93;7.63;;;5.20;99.90;;;;;;5055857;28;20194;-90
2022/04/03 07:24:45;;;;;;;13.23;7.30;;;5.30;99.90;;;;;;5040830;28;20419;-91
2022/04/03 07:27:13;;;;;;;12.83;6.77;;;5.30;99.90;;;;;;5058014;28;20217;-95
2022/04/03 07:29:39;;;;;;;12.75;8.02;;;5.40;99.90;;;;;;5037631;28;20401;-91
2022/04/03 07:32:05;;;;;;;13.33;8.53;;;5.50;99.90;;;;;;5057794;28;20221;-90
2022/04/03 07:34:31;;;;;;;14.25;7.78;;;5.50;99.90;;;;;;5055717;28;20381;-94
2022/04/03 07:36:57;;;;;;;9.27;5.78;;;5.50;99.90;;;;;;5072689;28;20212;-94
2022/04/03 07:39:26;;;;;;;12.52;7.35;;;5.50;99.90;;;;;;5056280;28;20172;-94
2022/04/03 07:41:52;;;;;;;12.20;8.40;;;5.50;99.90;;;;;;5057615;28;20623;-96
2022/04/03 07:44:18;;;;;;;13.32;8.07;;;5.50;99.90;;;;;;5058872;28;20177;-89
2022/04/03 07:46:44;;;;;;;14.48;8.77;;;5.50;99.90;;;;;;5061063;28;20203;-91
2022/04/03 07:49:10;;;;;;;17.80;9.43;;;5.50;99.90;;;;;;5074756;28;20166;-91
2022/04/03 07:51:36;;;;;;;10.55;7.90;;;5.50;99.90;;;;;;5062308;28;20420;-92
2022/04/03 07:54:02;;;;;;;13.20;6.67;;;5.50;99.90;;;;;;5066137;28;20221;-94
2022/04/03 07:56:29;;;;;;;13.90;8.30;;;5.50;99.90;;;;;;5062407;28;20465;-91
2022/04/03 07:58:56;;;;;;;17.02;8.82;;;5.50;99.90;;;;;;5072767;28;20388;-95
2022/04/03 08:01:21;;;;;;;13.10;9.65;;;5.50;99.90;;;;;;5061724;28;20184;-91
2022/04/03 08:03:48;;;;;;;11.30;7.40;;;5.50;99.90;;;;;;5060842;28;20202;-90
2022/04/03 08:06:13;;;;;;;9.80;6.88;;;5.50;99.90;;;;;;5057305;28;20205;-95
2022/04/03 08:08:39;;;;;;;13.20;7.47;;;5.50;99.90;;;;;;5039848;28;20198;-91
2022/04/03 08:11:05;;;;;;;12.70;8.10;;;5.60;99.90;;;;;;5059643;28;20260;-91
2022/04/03 08:13:31;;;;;;;13.13;7.37;;;5.60;99.90;;;;;;5054396;28;20444;-94
2022/04/03 08:15:57;;;;;;;10.10;7.60;;;5.80;99.90;;;;;;5044573;28;20276;-92
2022/04/03 08:18:24;;;;;;;13.32;7.80;;;5.80;99.90;;;;;;5058414;28;20705;-95
2022/04/03 08:20:54;;;;;;;8.93;6.00;;;5.90;99.90;;;;;;5061273;28;20177;-96
2022/04/03 08:23:19;;;;;;;12.38;7.95;;;6.10;99.90;;;;;;5061094;28;20587;-95
2022/04/03 08:25:45;;;;;;;11.50;8.20;;;6.10;99.90;;;;;;5062678;28;20272;-94
2022/04/03 08:28:11;;;;;;;13.20;8.60;;;6.30;99.90;;;;;;5062457;28;20200;-90
2022/04/03 08:30:38;;;;;;;10.18;7.70;;;6.30;99.90;;;;;;5064791;28;20388;-91
2022/04/03 08:33:06;;;;;;;11.52;6.38;;;6.40;99.90;;;;;;5066143;28;20220;-95
2022/04/03 08:35:33;;;;;;;16.25;7.93;;;6.40;99.90;;;;;;5093143;28;20192;-91
2022/04/03 08:38:00;;;;;;;8.80;5.93;;;6.40;99.90;;;;;;5063073;28;20223;-92
2022/04/03 08:40:30;;;;;;;11.80;6.80;;;6.50;99.90;;;;;;5059245;28;20207;-96
2022/04/03 08:42:56;;;;;;;14.45;9.73;;;6.50;99.90;;;;;;5046360;28;20212;-95
2022/04/03 08:45:23;;;;;;;10.55;7.40;;;6.60;99.90;;;;;;5076047;28;20170;-95
2022/04/03 08:47:54;;;;;;;10.65;7.55;;;6.70;99.90;;;;;;5048834;28;20201;-91
2022/04/03 08:50:29;;;;;;;10.88;6.85;;;6.70;99.90;;;;;;5050137;28;20201;-91
2022/04/03 08:52:58;;;;;;;9.98;5.45;;;6.70;99.90;;;;;;5075257;28;20232;-92
2022/04/03 08:55:24;;;;;;;13.13;8.15;;;6.70;99.90;;;;;;5050395;28;20200;-91
2022/04/03 08:57:51;;;;;;;9.93;7.57;;;6.80;99.90;;;;;;5040158;28;20343;-94
2022/04/03 09:00:21;;;;;;;14.43;8.23;;;6.80;99.90;;;;;;5059946;28;20252;-96
2022/04/03 09:02:47;;;;;;;10.40;6.20;;;6.90;99.90;;;;;;5056665;28;20186;-92
2022/04/03 09:05:14;;;;;;;8.75;6.28;;;6.90;99.90;;;;;;5077296;28;20181;-96
2022/04/03 09:07:44;;;;;;;10.00;6.57;;;7.10;99.90;;;;;;5074309;28;20714;-91
2022/04/03 09:10:15;;;;;;;15.00;6.75;;;7.30;99.90;;;;;;5056120;28;20235;-91
2022/04/03 09:12:46;;;;;;;12.80;7.50;;;7.50;99.90;;;;;;5056269;28;20223;-95
2022/04/03 09:15:14;;;;;;;12.05;7.97;;;7.60;99.90;;;;;;5055512;28;20177;-91
2022/04/03 09:17:49;;;;;;;11.05;7.65;;;7.80;99.90;;;;;;5047196;28;20337;-90
2022/04/03 09:20:17;;;;;;;10.43;6.85;;;8.00;99.90;;;;;;5056406;28;20535;-91
2022/04/03 09:22:46;;;;;;;12.90;8.48;;;8.10;99.90;;;;;;5058632;28;20277;-91
2022/04/03 09:25:16;;;;;;;15.00;9.65;;;8.20;99.90;;;;;;5076297;28;20173;-90
2022/04/03 09:27:45;;;;;;;13.73;9.10;;;8.30;99.90;;;;;;5056886;28;20201;-91
2022/04/03 09:30:11;;;;;;;10.52;7.50;;;8.20;99.90;;;;;;5077276;28;20555;-94
2022/04/03 09:32:50;;;;;;;11.88;8.00;;;8.20;99.90;;;;;;5049542;28;20225;-94
2022/04/03 09:35:17;;;;;;;14.90;8.70;;;8.10;99.90;;;;;;5065186;28;20804;-91
2022/04/03 09:38:08;;;;;;;17.60;11.68;;;8.20;99.90;;;;;;5075015;28;20197;-95
2022/04/03 09:40:36;;;;;;;14.23;8.88;;;8.20;99.90;;;;;;5073272;28;20823;-93
2022/04/03 09:43:20;;;;;;;10.55;6.85;;;8.30;99.90;;;;;;5072056;28;20200;-93
2022/04/03 09:46:01;;;;;;;12.50;7.45;;;8.40;99.90;;;;;;5055742;28;20173;-96
2022/04/03 09:48:39;;;;;;;10.65;8.60;;;8.50;99.90;;;;;;5075219;28;20242;-96
2022/04/03 09:51:09;;;;;;;10.75;7.30;;;8.40;99.90;;;;;;5076232;28;20254;-91
2022/04/03 09:53:49;;;;;;;11.25;7.18;;;8.40;99.90;;;;;;5041411;28;20226;-91
2022/04/03 09:56:37;;;;;;;12.50;8.25;;;8.40;99.90;;;;;;5041036;28;20177;-95
2022/04/03 09:59:07;;;;;;;12.80;8.75;;;8.40;99.90;;;;;;5040413;28;20189;-90
2022/04/03 10:01:35;;;;;;;11.98;7.80;;;8.30;99.90;;;;;;5056092;28;20181;-89
2022/04/03 10:04:05;;;;;;;10.77;7.25;;;8.10;99.90;;;;;;5068907;28;20172;-92
2022/04/03 10:06:33;;;;;;;13.45;7.80;;;8.00;99.90;;;;;;5058765;28;20263;-91
2022/04/03 10:09:03;;;;;;;12.02;9.05;;;7.90;99.90;;;;;;5064372;28;20200;-95
2022/04/03 10:11:29;;;;;;;11.50;8.18;;;8.00;99.90;;;;;;5058703;28;20646;-94
2022/04/03 10:13:56;;;;;;;14.95;10.55;;;8.10;99.90;;;;;;5075607;28;20240;-90
2022/04/03 10:16:22;;;;;;;11.82;8.25;;;8.20;99.90;;;;;;5070593;28;20178;-91
2022/04/03 10:18:50;;;;;;;11.95;7.70;;;8.30;99.90;;;;;;5055824;28;20320;-90
2022/04/03 10:21:19;;;;;;;10.65;7.03;;;8.30;99.90;;;;;;5059621;28;20189;-91
2022/04/03 10:23:46;;;;;;;9.65;7.15;;;8.40;99.90;;;;;;5043201;28;20194;-95
2022/04/03 10:26:17;;;;;;;8.82;6.32;;;8.40;99.90;;;;;;5042033;28;20182;-95
2022/04/03 10:28:49;;;;;;;7.75;6.55;;;8.40;99.90;;;;;;5042987;28;20197;-92
2022/04/03 10:31:18;;;;;;;9.93;6.68;;;8.30;99.90;;;;;;5077330;28;20173;-91
2022/04/03 10:33:49;;;;;;;6.30;5.53;;;8.30;99.90;;;;;;5063916;28;20216;-96
2022/04/03 10:36:17;;;;;;;7.88;6.10;;;8.30;99.90;;;;;;5075800;28;20282;-91
2022/04/03 10:39:03;;;;;;;8.48;6.20;;;8.30;99.90;;;;;;5055872;28;20197;-96
2022/04/03 10:41:35;;;;;;;9.68;6.53;;;8.20;99.90;;;;;;5057570;28;20587;-96
2022/04/03 10:44:19;;;;;;;7.53;5.05;;;8.20;99.90;;;;;;5038406;28;20197;-90
2022/04/03 10:47:10;;;;;;;6.13;5.20;;;8.20;99.90;;;;;;5044752;28;20177;-96
2022/04/03 10:49:46;;;;;;;8.73;6.32;;;8.10;99.90;;;;;;5058244;28;20193;-90
2022/04/03 10:52:39;;;;;;;9.30;6.03;;;8.10;99.90;;;;;;5048496;28;20223;-91
2022/04/03 10:55:20;;;;;;;13.32;8.05;;;8.10;99.90;;;;;;5057513;28;20169;-96
2022/04/03 10:58:04;;;;;;;8.43;6.30;;;8.10;99.90;;;;;;5051138;28;20174;-91
2022/04/03 11:00:30;;;;;;;16.55;8.52;;;8.10;99.90;;;;;;5039660;28;20197;-95
2022/04/03 11:02:55;;;;;;;10.97;6.00;;;8.20;99.90;;;;;;5060699;28;20297;-96
2022/04/03 11:05:21;;;;;;;7.40;5.73;;;8.20;99.90;;;;;;5063532;28;20440;-96
2022/04/03 11:07:48;;;;;;;7.33;6.27;;;8.20;99.90;;;;;;5077406;28;20260;-95
2022/04/03 11:10:14;;;;;;;12.02;6.53;;;8.40;99.90;;;;;;5070497;28;20236;-94
2022/04/03 11:12:44;;;;;;;9.13;5.37;;;8.40;99.90;;;;;;5054635;28;20217;-94
2022/04/03 11:15:13;;;;;;;5.97;5.13;;;8.40;99.90;;;;;;5038070;28;20882;-91
2022/04/03 11:17:47;;;;;;;9.15;6.32;;;8.40;99.90;;;;;;5044406;28;20233;-96
2022/04/03 11:20:33;;;;;;;7.95;5.60;;;8.40;99.90;;;;;;5021484;28;20206;-91
2022/04/03 11:23:00;;;;;;;10.52;6.72;;;8.40;99.90;;;;;;5041395;28;20201;-91
2022/04/03 11:25:26;;;;;;;6.97;5.00;;;8.40;99.90;;;;;;5019398;28;20179;-95
2022/04/03 11:27:52;;;;;;;6.80;5.53;;;8.30;99.90;;;;;;5035105;28;20217;-90
2022/04/03 11:30:19;;;;;;;12.52;6.20;;;8.20;99.90;;;;;;5042138;28;20184;-95
2022/04/03 11:32:47;;;;;;;8.32;5.63;;;8.10;99.90;;;;;;5040596;28;20249;-90
2022/04/03 11:35:13;;;;;;;14.07;8.25;;;8.00;99.90;;;;;;5036146;28;20190;-92
2022/04/03 11:37:45;;;;;;;11.10;6.57;;;7.90;99.90;;;;;;5026379;28;20207;-91
2022/04/03 11:40:14;;;;;;;6.43;5.30;;;7.70;99.90;;;;;;5019919;28;20174;-95
2022/04/03 11:42:40;;;;;;;7.00;5.57;;;7.60;99.90;;;;;;5033398;28;20565;-91
2022/04/03 11:45:07;;;;;;;10.37;8.20;;;7.60;99.90;;;;;;5034912;28;20189;-90
2022/04/03 11:47:33;;;;;;;9.10;6.28;;;7.50;99.90;;;;;;5036214;28;20402;-92
2022/04/03 11:50:07;;;;;;;10.20;7.15;;;7.40;99.90;;;;;;5035464;28;20454;-94
2022/04/03 11:52:35;;;;;;;8.93;6.15;;;7.40;99.90;;;;;;5037514;28;20251;-96
2022/04/03 11:55:02;;;;;;;9.93;6.15;;;7.40;99.90;;;;;;5044040;28;20241;-96
2022/04/03 11:57:31;;;;;;;5.88;5.00;;;7.40;99.90;;;;;;5075298;28;20213;-96
2022/04/03 11:59:57;;;;;;;8.93;5.90;;;7.40;99.90;;;;;;5061324;28;20283;-90
2022/04/03 12:02:31;;;;;;;9.53;6.53;;;7.40;99.90;;;;;;5025787;28;20194;-96
2022/04/03 12:04:57;;;;;;;7.88;6.20;;;7.50;99.90;;;;;;5022666;28;20982;-91
2022/04/03 12:07:32;;;;;;;10.45;6.53;;;7.50;99.90;;;;;;5037228;28;20194;-92
2022/04/03 12:09:58;;;;;;;11.77;9.13;;;7.60;99.90;;;;;;5032421;28;20169;-91
2022/04/03 12:12:27;;;;;;;15.27;10.40;;;7.60;99.90;;;;;;5055495;28;20566;-90
2022/04/03 12:14:54;;;;;;;15.57;8.98;;;7.70;99.90;;;;;;5037543;28;20454;-96
2022/04/03 12:17:20;;;;;;;18.70;12.05;;;7.80;99.90;;;;;;5041429;28;20201;-91
2022/04/03 12:19:49;;;;;;;18.05;13.38;;;7.80;99.90;;;;;;5054130;28;20206;-96
2022/04/03 12:22:18;;;;;;;14.38;11.20;;;7.80;99.90;;;;;;5065234;28;20201;-94
2022/04/03 12:24:47;;;;;;;17.90;11.07;;;7.80;99.90;;;;;;5053881;28;20186;-91
2022/04/03 12:27:16;;;;;;;18.85;11.75;;;7.70;99.90;;;;;;5053298;28;20194;-94
2022/04/03 12:29:50;;;;;;;16.70;11.73;;;7.70;99.90;;;;;;5040441;28;20597;-94
2022/04/03 12:32:36;;;;;;;21.20;12.82;;;7.60;99.90;;;;;;5052516;28;20223;-96
2022/04/03 12:35:08;;;;;;;17.58;12.40;;;7.60;99.90;;;;;;5044840;28;20677;-96
2022/04/03 12:37:40;;;;;;;19.92;13.73;;;7.50;99.90;;;;;;5066739;28;20219;-92
2022/04/03 12:40:08;;;;;;;17.98;11.57;;;7.40;99.90;;;;;;5050319;28;20186;-91
2022/04/03 12:42:41;;;;;;;21.20;12.00;;;7.40;99.90;;;;;;5061305;28;20280;-93
2022/04/03 12:45:20;;;;;;;17.75;11.80;;;7.40;99.90;;;;;;5055875;28;20185;-96